Hlavní strana
METAR-TAF:

METAR-TAF

Letiště :

Brunswick County Airport

Southport, Severní Karolína, Spojené státy americké

zeměpisná šířka: 33-55-45N, zeměpisná délka: 078-04-29W, výška: 8 m

Aktuální stav počasí

Zpráva byla vytvořena před 21 minutami, v 13:35 UTC
Severní vítr 4 kt
Teplota 13°C
Vlhkost vzduchu 94%
Tlak 1028 hPa
Viditelnost: 16.1 km
Zataženo ve výšce 5500 ft

METAR: KSUT 251335Z AUTO 01004KT 10SM OVC055 13/12 A3037 RMK AO2 T01320120

Čas: 08:56 (13:56 UTC)


TAF: chybějící

Stav a předpovědi počasí z více než 4 000 letišť (zprávy METAR a TAF).

Červené a žluté tečky na mapě představují dostupné meteorologické stanice.

Když kurzor umístíte na tečku, zobrazí se název stanice.

Pak kliknutím zobrazíte stav a předpověď počasí.

Chcete-li změnit mapu, kliknutím na zelené tlačítko se znaménkem +mapu přiblížíte, kliknutím na zelené tlačítko se znaménkem – mapu oddálíte a kliknutím na zelené šipky přejdete na sousední mapy.


METAR-TAF: